< Cyclone 201403 2014 Season Cyclone 201407 >
Cyclone 201404 (Christine)
General InformationDetailed Track InformationTrack Information on Google MapsList of All Images || ResourceGoogle EarthGE AnimationAtom FeedGeoJSON
Detalied Best Track Wind (Time Zone = UTC)
Year Month Day Hour Lat. Long. Wind (kt) Gust (kt) Direc. of Major Storm Axis Radius of Major Storm Axis (nm) Radius of Minor Storm Axis (nm) Direc. of Major Gale Axis Radius of Major Gale Axis (nm) Radius of Minor Gale Axis (nm) Image
2013 12 25 14 -11.9 124.0 20 45 symmetric - - symmetric - - Image
2013 12 25 18 -12.1 123.6 20 45 symmetric - - symmetric - - Image
2013 12 26 00 -12.4 123.0 25 45 symmetric - - symmetric - - Image
2013 12 26 06 -12.4 123.0 30 45 symmetric - - symmetric - - Image
2013 12 26 12 -12.7 122.7 30 45 symmetric - - symmetric - - Image
2013 12 26 18 -13.0 122.5 30 45 symmetric - - symmetric - - Image
2013 12 27 00 -13.9 122.2 30 45 symmetric - - symmetric - - Image
2013 12 27 06 -14.1 122.0 30 45 symmetric - - symmetric - - Image
2013 12 27 12 -14.3 121.8 35 50 symmetric - - symmetric - - Image
2013 12 27 18 -14.5 121.7 35 50 symmetric - - symmetric - - Image
2013 12 28 00 -14.8 121.6 35 50 symmetric - - symmetric - - Image
2013 12 28 06 -15.2 121.5 40 55 symmetric - - symmetric - - Image
2013 12 28 12 -15.7 120.8 40 55 symmetric - - symmetric - - Image
2013 12 28 18 -16.0 120.4 45 65 symmetric - - symmetric - - Image
2013 12 29 00 -16.5 120.2 50 70 symmetric - - symmetric - - Image
2013 12 29 06 -17.2 119.6 55 75 symmetric - - symmetric - - Image
2013 12 29 07 -17.3 119.6 56.25 -1 symmetric - - symmetric - - Image
2013 12 29 12 -17.7 119.3 60 85 symmetric - - symmetric - - Image
2013 12 29 15 -17.9 119.2 65 90 symmetric - - symmetric - - Image
2013 12 29 18 -18.4 119.0 65 90 symmetric - - symmetric - - Image
2013 12 29 21 -18.6 118.9 66.6667 -1 symmetric - - symmetric - - Image
2013 12 30 00 -18.8 118.6 70 100 symmetric - - symmetric - - Image
2013 12 30 03 -19.0 118.4 70 100 symmetric - - symmetric - - Image
2013 12 30 06 -19.5 118.2 75 105 symmetric - - symmetric - - Image
2013 12 30 09 -19.8 118.0 80 110 symmetric - - symmetric - - Image
2013 12 30 12 -20.3 117.7 90 125 symmetric - - symmetric - - Image
2013 12 30 15 -20.6 117.4 90 125 symmetric - - symmetric - - Image
2013 12 30 18 -21.0 117.1 70 100 symmetric - - symmetric - - Image
2013 12 30 21 -21.4 117.0 60 85 symmetric - - symmetric - - Image
2013 12 31 00 -22.0 117.0 50 70 symmetric - - symmetric - - Image
2013 12 31 06 -23.8 117.5 40 55 symmetric - - symmetric - - Image
2013 12 31 12 -25.0 118.8 30 45 symmetric - - symmetric - - Image
2013 12 31 18 -26.0 120.3 30 45 symmetric - - symmetric - - Image
2014 1 1 00 -27.4 122.4 25 45 symmetric - - symmetric - - Image
2014 1 1 06 -29.0 124.5 25 45 symmetric - - symmetric - - Image
< Cyclone 201403 2014 Season Cyclone 201407 >

Help